Time;durP1;ratioP1;P1;durP2;ratioP2;P2;SDS_P1;SDS_P2;PMS_P1;PMS_P2;Temp;Humidity;BMP_temperature;BMP_pressure;BME280_temperature;BME280_humidity;BME280_pressure;Samples;Min_cycle;Max_cycle;Signal;HPM_P1;HPM_P2
2022/04/08 00:00:01;;;;;;;0.22;0.20;;;9.70;99.90;;;;;;5018899;28;20117;-79
2022/04/08 00:02:26;;;;;;;0.60;0.30;;;9.80;99.90;;;;;;5020534;28;20033;-80
2022/04/08 00:04:52;;;;;;;1.52;0.20;;;9.90;99.90;;;;;;5018490;28;20022;-79
2022/04/08 00:07:18;;;;;;;0.20;0.13;;;10.00;99.90;;;;;;5019735;28;20406;-80
2022/04/08 00:09:44;;;;;;;1.55;0.15;;;10.00;99.90;;;;;;5018871;28;20018;-80
2022/04/08 00:12:09;;;;;;;0.00;0.00;;;10.00;99.90;;;;;;5019669;28;20024;-79
2022/04/08 00:14:35;;;;;;;0.17;0.15;;;10.00;99.90;;;;;;5019386;28;20026;-80
2022/04/08 00:17:02;;;;;;;0.20;0.20;;;9.90;99.90;;;;;;5020328;28;20037;-79
2022/04/08 00:19:28;;;;;;;0.13;0.13;;;9.80;99.90;;;;;;5020013;28;20045;-79
2022/04/08 00:21:54;;;;;;;0.13;0.10;;;9.80;99.90;;;;;;5017799;28;20034;-80
2022/04/08 00:24:19;;;;;;;0.20;0.20;;;9.80;99.90;;;;;;5017528;28;20032;-80
2022/04/08 00:26:46;;;;;;;0.10;0.10;;;9.70;99.90;;;;;;5018348;28;20029;-80
2022/04/08 00:29:15;;;;;;;0.08;0.08;;;9.60;99.90;;;;;;5018836;28;20076;-80
2022/04/08 00:31:41;;;;;;;0.25;0.10;;;9.60;99.90;;;;;;5018740;28;20026;-79
2022/04/08 00:34:07;;;;;;;0.10;0.10;;;9.60;99.90;;;;;;5017686;28;20032;-80
2022/04/08 00:36:32;;;;;;;0.10;0.10;;;9.60;99.90;;;;;;5019227;28;20021;-80
2022/04/08 00:38:58;;;;;;;0.20;0.10;;;9.50;99.90;;;;;;5016823;28;20040;-80
2022/04/08 00:41:24;;;;;;;0.10;0.10;;;9.40;99.90;;;;;;5017851;28;20065;-80
2022/04/08 00:43:49;;;;;;;0.52;0.10;;;9.40;99.90;;;;;;5018860;28;20056;-80
2022/04/08 00:46:15;;;;;;;0.17;0.17;;;9.30;99.90;;;;;;5017305;28;20088;-80
2022/04/08 00:48:41;;;;;;;0.10;0.10;;;9.20;99.90;;;;;;5018771;28;20022;-79
2022/04/08 00:51:07;;;;;;;0.10;0.10;;;9.20;99.90;;;;;;5018609;28;20026;-80
2022/04/08 00:53:35;;;;;;;0.52;0.10;;;9.10;99.90;;;;;;5016755;28;20470;-80
2022/04/08 00:56:03;;;;;;;0.10;0.10;;;9.10;99.90;;;;;;5018331;28;20029;-80
2022/04/08 00:58:30;;;;;;;0.22;0.10;;;9.10;99.90;;;;;;5018353;28;20029;-80
2022/04/08 01:00:56;;;;;;;0.10;0.10;;;9.00;99.90;;;;;;5018049;28;20409;-80
2022/04/08 01:03:21;;;;;;;0.20;0.10;;;9.00;99.90;;;;;;5017215;28;20057;-80
2022/04/08 01:05:47;;;;;;;0.10;0.10;;;9.10;99.90;;;;;;5018686;28;20066;-80
2022/04/08 01:08:14;;;;;;;0.10;0.10;;;9.10;99.90;;;;;;5021086;28;20026;-80
2022/04/08 01:10:40;;;;;;;0.38;0.20;;;9.10;99.90;;;;;;5020208;28;20026;-80
2022/04/08 01:13:06;;;;;;;0.10;0.10;;;9.00;99.90;;;;;;5019929;28;20108;-80
2022/04/08 01:15:32;;;;;;;0.20;0.20;;;9.00;99.90;;;;;;5018954;28;20034;-80
2022/04/08 01:17:58;;;;;;;0.17;0.17;;;9.00;99.90;;;;;;5019783;28;20157;-80
2022/04/08 01:20:24;;;;;;;0.30;0.20;;;9.00;99.90;;;;;;5018367;28;20047;-80
2022/04/08 01:22:49;;;;;;;0.68;0.25;;;9.00;99.90;;;;;;5017261;28;20108;-80
2022/04/08 01:25:15;;;;;;;0.95;0.50;;;9.00;99.90;;;;;;5018175;28;20088;-80
2022/04/08 01:27:41;;;;;;;0.57;0.40;;;8.90;99.90;;;;;;5018429;28;20025;-80
2022/04/08 01:30:09;;;;;;;0.30;0.20;;;8.90;99.90;;;;;;5018313;28;20029;-80
2022/04/08 01:32:35;;;;;;;0.10;0.10;;;8.80;99.90;;;;;;5017878;28;20113;-80
2022/04/08 01:35:02;;;;;;;0.10;0.10;;;8.80;99.90;;;;;;5018198;28;20386;-80
2022/04/08 01:37:28;;;;;;;0.17;0.10;;;8.70;99.90;;;;;;5016485;28;20510;-80
2022/04/08 01:39:53;;;;;;;0.30;0.10;;;8.70;99.90;;;;;;5018015;28;20041;-80
2022/04/08 01:42:24;;;;;;;0.30;0.20;;;8.80;99.90;;;;;;5019087;28;20032;-80
2022/04/08 01:44:50;;;;;;;0.10;0.10;;;8.80;99.90;;;;;;5017977;28;20021;-80
2022/04/08 01:47:16;;;;;;;0.32;0.10;;;8.80;99.90;;;;;;5018017;28;20076;-80
2022/04/08 01:49:41;;;;;;;0.43;0.20;;;8.80;99.90;;;;;;5017621;28;20085;-80
2022/04/08 01:52:09;;;;;;;1.30;0.60;;;8.80;99.90;;;;;;5016779;28;20022;-81
2022/04/08 01:54:34;;;;;;;4.03;1.60;;;8.80;99.90;;;;;;5014909;28;20063;-81
2022/04/08 01:57:00;;;;;;;3.00;1.70;;;8.80;99.90;;;;;;5014012;28;20049;-81
2022/04/08 01:59:25;;;;;;;0.85;0.50;;;8.80;99.90;;;;;;5015223;28;20021;-80
2022/04/08 02:01:51;;;;;;;1.20;0.52;;;8.80;99.90;;;;;;5014929;28;20462;-80
2022/04/08 02:04:17;;;;;;;0.50;0.20;;;8.80;99.90;;;;;;5014898;28;20033;-80
2022/04/08 02:06:43;;;;;;;0.10;0.10;;;8.80;99.90;;;;;;5014715;28;20061;-80
2022/04/08 02:09:09;;;;;;;0.10;0.10;;;8.80;99.90;;;;;;5014594;28;20024;-80
2022/04/08 02:11:36;;;;;;;0.10;0.10;;;8.70;99.90;;;;;;5015108;28;20041;-80
2022/04/08 02:14:03;;;;;;;0.10;0.10;;;8.70;99.90;;;;;;5014589;28;20018;-80
2022/04/08 02:16:28;;;;;;;0.10;0.10;;;8.70;99.90;;;;;;5014602;28;20405;-80
2022/04/08 02:18:54;;;;;;;0.30;0.17;;;8.60;99.90;;;;;;5014739;28;20025;-80
2022/04/08 02:21:20;;;;;;;0.13;0.10;;;8.60;99.90;;;;;;5013284;28;20393;-80
2022/04/08 02:23:47;;;;;;;0.10;0.10;;;8.60;99.90;;;;;;5013114;28;20079;-80
2022/04/08 02:26:14;;;;;;;0.30;0.10;;;8.50;99.90;;;;;;5014491;28;20030;-80
2022/04/08 02:28:40;;;;;;;0.10;0.10;;;8.50;99.90;;;;;;5014731;28;20022;-80
2022/04/08 02:31:06;;;;;;;0.28;0.20;;;8.50;99.90;;;;;;5013225;28;20029;-80
2022/04/08 02:33:32;;;;;;;0.00;0.00;;;8.40;99.90;;;;;;5014558;28;20097;-80
2022/04/08 02:35:58;;;;;;;0.10;0.10;;;8.40;99.90;;;;;;5014583;28;20160;-80
2022/04/08 02:38:23;;;;;;;0.20;0.15;;;8.40;99.90;;;;;;5014525;28;20474;-80
2022/04/08 02:40:49;;;;;;;0.57;0.20;;;8.30;99.90;;;;;;5014405;28;20497;-80
2022/04/08 02:43:15;;;;;;;0.20;0.10;;;8.30;99.90;;;;;;5012995;28;20037;-80
2022/04/08 02:45:40;;;;;;;0.10;0.10;;;8.20;99.90;;;;;;5014232;28;20033;-80
2022/04/08 02:48:06;;;;;;;0.28;0.10;;;8.10;99.90;;;;;;5015006;28;20026;-80
2022/04/08 02:50:32;;;;;;;0.10;0.10;;;8.10;99.90;;;;;;5012741;28;20026;-80
2022/04/08 02:52:57;;;;;;;0.85;0.50;;;8.00;99.90;;;;;;5014492;28;20037;-80
2022/04/08 02:55:23;;;;;;;0.40;0.40;;;7.90;99.90;;;;;;5013812;28;20053;-80
2022/04/08 02:57:50;;;;;;;1.20;0.60;;;7.90;99.90;;;;;;5014333;28;20363;-80
2022/04/08 03:00:17;;;;;;;0.30;0.30;;;7.80;99.90;;;;;;5014273;28;20045;-80
2022/04/08 03:02:44;;;;;;;4.18;1.15;;;7.80;99.90;;;;;;5013989;28;20026;-80
2022/04/08 03:05:10;;;;;;;5.28;3.17;;;7.70;99.90;;;;;;5012745;28;20029;-80
2022/04/08 03:07:36;;;;;;;2.67;1.20;;;7.70;99.90;;;;;;5013888;28;20022;-80
2022/04/08 03:10:04;;;;;;;0.77;0.35;;;7.70;99.90;;;;;;5012845;28;20022;-80
2022/04/08 03:12:30;;;;;;;0.57;0.20;;;7.70;99.90;;;;;;5013111;28;20078;-80
2022/04/08 03:14:56;;;;;;;0.40;0.20;;;7.60;99.90;;;;;;5014405;28;20076;-80
2022/04/08 03:17:22;;;;;;;0.20;0.10;;;7.60;99.90;;;;;;5014054;28;20030;-80
2022/04/08 03:19:48;;;;;;;0.10;0.10;;;7.70;99.90;;;;;;5013777;28;20478;-80
2022/04/08 03:22:14;;;;;;;0.15;0.15;;;7.70;99.90;;;;;;5014137;28;20025;-80
2022/04/08 03:24:39;;;;;;;0.28;0.15;;;7.70;99.90;;;;;;5013702;28;20478;-80
2022/04/08 03:27:05;;;;;;;0.60;0.20;;;7.70;99.90;;;;;;5013868;28;20022;-81
2022/04/08 03:29:30;;;;;;;0.63;0.30;;;7.80;99.90;;;;;;5017840;28;20072;-80
2022/04/08 03:31:56;;;;;;;1.13;0.20;;;7.80;99.90;;;;;;5019222;28;20034;-80
2022/04/08 03:34:22;;;;;;;1.02;0.20;;;7.80;99.90;;;;;;5018905;28;20022;-81
2022/04/08 03:36:47;;;;;;;0.43;0.30;;;7.70;99.90;;;;;;5018168;28;20364;-81
2022/04/08 03:39:14;;;;;;;0.73;0.30;;;7.70;99.90;;;;;;5018302;28;20389;-80
2022/04/08 03:41:41;;;;;;;0.25;0.20;;;7.70;99.90;;;;;;5016808;28;20029;-80
2022/04/08 03:44:06;;;;;;;0.65;0.30;;;7.80;99.90;;;;;;5018266;28;20105;-80
2022/04/08 03:46:32;;;;;;;0.20;0.20;;;7.80;99.90;;;;;;5018104;28;20057;-80
2022/04/08 03:48:58;;;;;;;0.20;0.20;;;7.90;99.90;;;;;;5018326;28;20052;-80
2022/04/08 03:51:24;;;;;;;0.20;0.20;;;7.80;99.90;;;;;;5018289;28;20355;-80
2022/04/08 03:53:50;;;;;;;0.20;0.20;;;7.80;99.90;;;;;;5016829;28;20092;-80
2022/04/08 03:56:15;;;;;;;0.43;0.22;;;7.80;99.90;;;;;;5018391;28;20026;-80
2022/04/08 03:58:41;;;;;;;1.83;0.30;;;7.80;99.90;;;;;;5018002;28;20025;-80
2022/04/08 04:01:07;;;;;;;0.30;0.30;;;7.80;99.90;;;;;;5018374;28;20022;-80
2022/04/08 04:03:32;;;;;;;0.22;0.20;;;7.80;99.90;;;;;;5018555;28;20081;-81
2022/04/08 04:05:58;;;;;;;0.45;0.20;;;7.80;99.90;;;;;;5016080;28;20237;-80
2022/04/08 04:08:24;;;;;;;1.20;0.70;;;7.80;99.90;;;;;;5015986;28;20026;-80
2022/04/08 04:10:50;;;;;;;1.13;0.75;;;7.80;99.90;;;;;;5016735;28;20025;-80
2022/04/08 04:13:15;;;;;;;1.10;0.60;;;7.90;99.90;;;;;;5017096;28;20053;-80
2022/04/08 04:15:41;;;;;;;0.68;0.45;;;7.80;99.90;;;;;;5015851;28;20120;-80
2022/04/08 04:18:08;;;;;;;1.38;0.45;;;7.80;99.90;;;;;;5016782;28;20041;-80
2022/04/08 04:20:34;;;;;;;0.63;0.40;;;7.70;99.90;;;;;;5015570;28;20025;-80
2022/04/08 04:23:00;;;;;;;1.60;0.70;;;7.70;99.90;;;;;;5016862;28;20021;-80
2022/04/08 04:25:28;;;;;;;2.22;0.77;;;7.70;99.90;;;;;;5016586;28;20026;-80
2022/04/08 04:27:54;;;;;;;3.13;0.77;;;7.70;99.90;;;;;;5015858;28;20109;-80
2022/04/08 04:30:20;;;;;;;2.10;0.88;;;7.60;99.90;;;;;;5017437;28;20098;-80
2022/04/08 04:32:46;;;;;;;2.45;1.67;;;7.60;99.90;;;;;;5015793;28;20537;-80
2022/04/08 04:35:11;;;;;;;3.70;2.15;;;7.60;99.90;;;;;;5017047;28;20053;-81
2022/04/08 04:37:37;;;;;;;6.68;3.67;;;7.60;99.90;;;;;;5016010;28;20065;-79
2022/04/08 04:40:04;;;;;;;1.90;1.13;;;7.60;99.90;;;;;;5016695;28;20064;-78
2022/04/08 04:42:30;;;;;;;2.10;1.40;;;7.60;99.90;;;;;;5016453;28;20037;-79
2022/04/08 04:44:57;;;;;;;2.00;1.02;;;7.60;99.90;;;;;;5016046;28;20029;-79
2022/04/08 04:47:23;;;;;;;1.35;0.90;;;7.70;99.90;;;;;;5017612;28;20101;-78
2022/04/08 04:49:49;;;;;;;2.97;1.10;;;7.70;99.90;;;;;;5017041;28;20054;-78
2022/04/08 04:52:14;;;;;;;0.50;0.30;;;7.70;99.90;;;;;;5018272;28;20025;-78
2022/04/08 04:54:41;;;;;;;0.30;0.20;;;7.80;99.90;;;;;;5018185;28;20489;-79
2022/04/08 04:57:07;;;;;;;4.13;1.42;;;7.80;99.90;;;;;;5017576;28;20029;-79
2022/04/08 04:59:33;;;;;;;2.30;1.30;;;7.80;99.90;;;;;;5017700;28;20105;-78
2022/04/08 05:01:59;;;;;;;0.90;0.60;;;7.80;99.90;;;;;;5017856;28;20057;-78
2022/04/08 05:04:24;;;;;;;1.48;0.63;;;7.80;99.90;;;;;;5017649;28;20108;-78
2022/04/08 05:06:50;;;;;;;1.60;0.50;;;7.70;99.90;;;;;;5016542;28;20474;-78
2022/04/08 05:09:16;;;;;;;1.13;0.30;;;7.70;99.90;;;;;;5016750;28;20104;-79
2022/04/08 05:11:42;;;;;;;1.58;0.57;;;7.70;99.90;;;;;;5018565;28;20018;-78
2022/04/08 05:14:07;;;;;;;0.98;0.50;;;7.70;99.90;;;;;;5017942;28;20049;-78
2022/04/08 05:16:33;;;;;;;0.70;0.45;;;7.70;99.90;;;;;;5018736;28;20030;-79
2022/04/08 05:18:59;;;;;;;0.35;0.30;;;7.70;99.90;;;;;;5017751;28;20121;-78
2022/04/08 05:21:24;;;;;;;0.80;0.45;;;7.80;99.90;;;;;;5018052;28;20034;-79
2022/04/08 05:23:51;;;;;;;0.80;0.40;;;7.70;99.90;;;;;;5017402;28;20022;-79
2022/04/08 05:26:17;;;;;;;1.15;0.60;;;7.70;99.90;;;;;;5017350;28;20026;-78
2022/04/08 05:28:42;;;;;;;0.28;0.20;;;7.70;99.90;;;;;;5017588;28;20048;-79
2022/04/08 05:31:08;;;;;;;0.80;0.40;;;7.70;99.90;;;;;;5017713;28;20053;-78
2022/04/08 05:33:34;;;;;;;1.67;0.80;;;7.70;99.90;;;;;;5017674;28;20072;-78
2022/04/08 05:35:59;;;;;;;2.97;1.60;;;7.70;99.90;;;;;;5017652;28;20533;-78
2022/04/08 05:38:25;;;;;;;3.13;1.20;;;7.70;99.90;;;;;;5017774;28;20053;-78
2022/04/08 05:40:51;;;;;;;1.83;0.75;;;7.70;99.90;;;;;;5017427;28;20018;-78
2022/04/08 05:43:17;;;;;;;5.15;1.40;;;7.70;99.90;;;;;;5017971;28;20386;-78
2022/04/08 05:45:42;;;;;;;3.08;1.30;;;7.70;99.90;;;;;;5017284;28;20026;-78
2022/04/08 05:48:08;;;;;;;3.67;1.33;;;7.70;99.90;;;;;;5018022;28;20475;-78
2022/04/08 05:50:34;;;;;;;0.98;0.70;;;7.70;99.90;;;;;;5017310;28;20057;-78
2022/04/08 05:53:00;;;;;;;1.10;0.70;;;7.70;99.90;;;;;;5017208;28;20033;-78
2022/04/08 05:55:26;;;;;;;1.48;0.77;;;7.70;99.90;;;;;;5017215;28;20025;-78
2022/04/08 05:57:56;;;;;;;25.63;19.38;;;7.70;99.90;;;;;;5017810;28;20054;-78
2022/04/08 06:00:23;;;;;;;5.97;4.57;;;7.70;99.90;;;;;;5017362;28;20101;-78
2022/04/08 06:02:49;;;;;;;1.77;0.85;;;7.70;99.90;;;;;;5015732;28;20026;-78
2022/04/08 06:05:18;;;;;;;0.82;0.52;;;7.70;99.90;;;;;;5016988;28;20026;-78
2022/04/08 06:07:51;;;;;;;1.02;0.50;;;7.70;99.90;;;;;;5017017;28;20470;-78
2022/04/08 06:10:18;;;;;;;1.05;0.60;;;7.70;99.90;;;;;;5016831;28;20021;-78
2022/04/08 06:12:48;;;;;;;4.00;0.65;;;7.70;99.90;;;;;;5016915;28;20496;-78
2022/04/08 06:15:14;;;;;;;2.55;0.70;;;7.70;99.90;;;;;;5017436;28;20486;-78
2022/04/08 06:17:40;;;;;;;2.17;1.10;;;7.70;99.90;;;;;;5016799;28;20033;-78
2022/04/08 06:20:07;;;;;;;1.60;0.70;;;7.70;99.90;;;;;;5017069;28;20104;-78
2022/04/08 06:22:33;;;;;;;2.45;1.50;;;7.70;99.90;;;;;;5017467;28;20034;-78
2022/04/08 06:24:59;;;;;;;2.50;1.38;;;7.70;99.90;;;;;;5017034;28;20030;-78
2022/04/08 06:27:24;;;;;;;7.97;4.32;;;7.80;99.90;;;;;;5017127;28;20033;-78
2022/04/08 06:29:50;;;;;;;5.60;3.13;;;7.80;99.90;;;;;;5017059;28;20030;-78
2022/04/08 06:32:15;;;;;;;6.55;3.15;;;7.70;99.90;;;;;;5017041;28;20108;-78
2022/04/08 06:34:41;;;;;;;2.17;1.25;;;7.70;99.90;;;;;;5017276;28;20025;-78
2022/04/08 06:37:08;;;;;;;2.65;1.50;;;7.70;99.90;;;;;;5017600;28;20021;-78
2022/04/08 06:39:34;;;;;;;2.60;0.88;;;7.70;99.90;;;;;;5016912;28;20101;-78
2022/04/08 06:41:59;;;;;;;1.15;0.57;;;7.70;99.90;;;;;;5017094;28;20046;-78
2022/04/08 06:44:25;;;;;;;1.98;1.15;;;7.80;99.90;;;;;;5016863;28;20026;-78
2022/04/08 06:46:51;;;;;;;4.45;2.22;;;7.80;99.90;;;;;;5015472;28;20026;-78
2022/04/08 06:49:19;;;;;;;2.97;1.38;;;7.90;99.90;;;;;;5016771;28;20079;-78
2022/04/08 06:51:45;;;;;;;2.60;1.70;;;8.00;99.90;;;;;;5017011;28;20025;-78
2022/04/08 06:54:10;;;;;;;1.38;1.10;;;8.00;99.90;;;;;;5016210;28;20390;-78
2022/04/08 06:56:36;;;;;;;1.60;0.75;;;8.10;99.90;;;;;;5016621;28;20029;-78
2022/04/08 06:59:02;;;;;;;2.85;1.48;;;8.20;99.90;;;;;;5015990;28;20026;-78
2022/04/08 07:01:29;;;;;;;8.85;4.20;;;8.20;99.90;;;;;;5014921;28;20103;-78
2022/04/08 07:03:55;;;;;;;4.15;2.08;;;8.30;99.90;;;;;;5015660;28;20033;-78
2022/04/08 07:06:21;;;;;;;2.83;1.20;;;8.30;99.90;;;;;;5016811;28;20030;-78
2022/04/08 07:08:47;;;;;;;1.65;0.70;;;8.30;99.90;;;;;;5015948;28;20371;-78
2022/04/08 07:11:13;;;;;;;1.30;0.38;;;8.30;99.90;;;;;;5015784;28;20017;-78
2022/04/08 07:13:41;;;;;;;0.22;0.22;;;8.30;99.90;;;;;;5016132;28;20084;-78
2022/04/08 07:16:07;;;;;;;0.40;0.20;;;8.40;99.90;;;;;;5015826;28;20022;-78
2022/04/08 07:18:33;;;;;;;1.90;0.95;;;8.30;99.90;;;;;;5015982;28;20022;-78
2022/04/08 07:20:59;;;;;;;2.65;1.10;;;8.40;99.90;;;;;;5015985;28;20386;-78
2022/04/08 07:23:24;;;;;;;2.53;0.82;;;8.40;99.90;;;;;;5016224;28;20394;-78
2022/04/08 07:25:50;;;;;;;0.70;0.40;;;8.40;99.90;;;;;;5015742;28;20486;-77
2022/04/08 07:28:16;;;;;;;0.88;0.40;;;8.40;99.90;;;;;;5016763;28;20018;-78
2022/04/08 07:30:41;;;;;;;0.95;0.50;;;8.40;99.90;;;;;;5015955;28;20466;-78
2022/04/08 07:33:08;;;;;;;2.53;1.40;;;8.40;99.90;;;;;;5014398;28;20030;-78
2022/04/08 07:35:33;;;;;;;2.30;0.80;;;8.40;99.90;;;;;;5015686;28;20037;-78
2022/04/08 07:38:00;;;;;;;3.70;1.30;;;8.40;99.90;;;;;;5015674;28;20497;-78
2022/04/08 07:40:26;;;;;;;11.55;8.30;;;8.40;99.90;;;;;;5014793;28;20462;-78
2022/04/08 07:42:52;;;;;;;11.00;8.18;;;8.50;99.90;;;;;;5013679;28;20462;-78
2022/04/08 07:45:18;;;;;;;3.15;2.38;;;8.50;99.90;;;;;;5013616;28;20398;-78
2022/04/08 07:47:44;;;;;;;2.65;0.77;;;8.50;99.90;;;;;;5014000;28;20018;-78
2022/04/08 07:50:12;;;;;;;2.05;1.20;;;8.60;99.90;;;;;;5013601;28;20023;-78
2022/04/08 07:52:39;;;;;;;3.55;0.82;;;8.60;99.90;;;;;;5014132;28;20015;-78
2022/04/08 07:55:05;;;;;;;1.55;0.70;;;8.60;99.90;;;;;;5014106;28;20490;-78
2022/04/08 07:57:31;;;;;;;10.00;3.40;;;8.70;99.90;;;;;;5014160;28;20033;-78
2022/04/08 07:59:57;;;;;;;2.40;1.40;;;8.70;99.90;;;;;;5014262;28;20030;-78
2022/04/08 08:02:23;;;;;;;4.25;3.25;;;8.70;99.90;;;;;;5014424;28;20077;-78
2022/04/08 08:04:49;;;;;;;4.13;3.28;;;8.80;99.90;;;;;;5013160;28;20033;-78
2022/04/08 08:07:15;;;;;;;2.17;1.58;;;8.80;99.90;;;;;;5014531;28;20382;-78
2022/04/08 08:09:41;;;;;;;0.98;0.50;;;8.90;99.90;;;;;;5014422;28;20030;-78
2022/04/08 08:12:07;;;;;;;0.40;0.30;;;8.90;99.90;;;;;;5014620;28;20033;-78
2022/04/08 08:14:32;;;;;;;0.30;0.20;;;8.90;99.90;;;;;;5014999;28;20053;-78
2022/04/08 08:16:58;;;;;;;0.50;0.30;;;9.00;99.90;;;;;;5018200;28;20033;-78
2022/04/08 08:19:24;;;;;;;1.33;0.28;;;9.00;99.90;;;;;;5018190;28;20021;-78
2022/04/08 08:21:49;;;;;;;0.30;0.20;;;9.10;99.90;;;;;;5017081;28;20397;-78
2022/04/08 08:24:15;;;;;;;0.95;0.40;;;9.10;99.90;;;;;;5018253;28;20026;-78
2022/04/08 08:26:41;;;;;;;6.95;0.82;;;9.20;99.90;;;;;;5018133;28;20036;-78
2022/04/08 08:29:06;;;;;;;0.47;0.20;;;9.30;99.90;;;;;;5017115;28;20026;-78
2022/04/08 08:31:32;;;;;;;1.33;0.80;;;9.30;99.90;;;;;;5018967;28;20018;-78
2022/04/08 08:33:58;;;;;;;1.02;0.57;;;9.30;99.90;;;;;;5016650;28;20033;-78
2022/04/08 08:36:23;;;;;;;0.90;0.80;;;9.30;99.90;;;;;;5016961;28;20107;-78
2022/04/08 08:38:49;;;;;;;1.65;0.60;;;9.40;99.90;;;;;;5018520;28;20037;-78
2022/04/08 08:41:19;;;;;;;1.10;0.50;;;9.50;99.90;;;;;;5018565;28;20397;-78
2022/04/08 08:43:47;;;;;;;1.17;0.43;;;9.50;99.90;;;;;;5018456;28;20029;-78
2022/04/08 08:46:15;;;;;;;1.23;0.40;;;9.60;99.90;;;;;;5018310;28;20072;-78
2022/04/08 08:48:44;;;;;;;4.80;0.50;;;9.70;99.90;;;;;;5018343;28;20022;-78
2022/04/08 08:51:11;;;;;;;2.70;0.60;;;9.70;99.90;;;;;;5019235;28;20034;-78
2022/04/08 08:53:37;;;;;;;0.47;0.30;;;9.90;99.90;;;;;;5018602;28;20026;-78
2022/04/08 08:56:05;;;;;;;0.20;0.20;;;10.00;99.90;;;;;;5022051;28;20026;-78
2022/04/08 08:58:34;;;;;;;1.42;0.52;;;10.00;99.90;;;;;;5018321;28;20084;-78
2022/04/08 09:00:59;;;;;;;3.85;0.50;;;10.10;99.90;;;;;;5016535;28;20030;-78
2022/04/08 09:03:29;;;;;;;0.60;0.40;;;10.10;99.90;;;;;;5018598;28;20029;-78
2022/04/08 09:06:03;;;;;;;0.30;0.20;;;10.10;99.90;;;;;;5018170;28;20030;-78
2022/04/08 09:08:36;;;;;;;1.00;0.30;;;10.20;99.90;;;;;;5022795;28;20085;-78
2022/04/08 09:11:02;;;;;;;0.55;0.40;;;10.20;99.90;;;;;;5024901;28;20093;-78
2022/04/08 09:13:28;;;;;;;1.27;0.40;;;10.30;99.90;;;;;;5025046;28;20049;-78
2022/04/08 09:15:58;;;;;;;0.88;0.20;;;10.30;99.90;;;;;;5028493;28;20026;-78
2022/04/08 09:18:30;;;;;;;0.85;0.35;;;10.40;99.90;;;;;;5027307;28;20034;-78
2022/04/08 09:20:56;;;;;;;0.47;0.30;;;10.40;99.90;;;;;;5026040;28;20026;-78
2022/04/08 09:23:22;;;;;;;0.63;0.32;;;10.50;99.90;;;;;;5026331;28;20025;-78
2022/04/08 09:25:48;;;;;;;4.75;1.27;;;10.50;99.90;;;;;;5024444;28;20025;-78
2022/04/08 09:28:17;;;;;;;2.55;1.00;;;10.60;99.90;;;;;;5025890;28;20102;-78
2022/04/08 09:30:57;;;;;;;1.60;0.80;;;10.60;99.90;;;;;;5021220;28;20029;-78
2022/04/08 09:33:23;;;;;;;0.45;0.20;;;10.60;99.90;;;;;;5017935;28;20022;-79
2022/04/08 09:35:52;;;;;;;1.20;0.35;;;10.60;99.90;;;;;;5019331;28;20030;-78
2022/04/08 09:38:20;;;;;;;0.50;0.28;;;10.60;99.90;;;;;;5019266;28;20105;-78
2022/04/08 09:40:47;;;;;;;1.10;0.60;;;10.60;99.90;;;;;;5019624;28;20072;-79
2022/04/08 09:43:13;;;;;;;0.90;0.57;;;10.70;99.90;;;;;;5020288;28;20018;-78
2022/04/08 09:45:39;;;;;;;0.82;0.30;;;10.70;99.90;;;;;;5018326;28;20511;-79
2022/04/08 09:48:07;;;;;;;2.00;0.30;;;10.80;99.90;;;;;;5019428;28;20030;-79
2022/04/08 09:50:34;;;;;;;0.32;0.20;;;10.90;99.90;;;;;;5019616;28;20109;-78
2022/04/08 09:53:02;;;;;;;0.20;0.20;;;10.90;99.90;;;;;;5020044;28;20085;-79
2022/04/08 09:55:29;;;;;;;1.13;0.20;;;11.00;99.90;;;;;;5019790;28;20371;-79
2022/04/08 09:58:02;;;;;;;0.32;0.17;;;11.00;99.90;;;;;;5018212;28;20028;-79
2022/04/08 10:00:28;;;;;;;0.45;0.20;;;11.00;99.90;;;;;;5019263;28;20025;-79
2022/04/08 10:02:58;;;;;;;0.20;0.15;;;11.10;99.90;;;;;;5017518;28;20029;-78
2022/04/08 10:05:25;;;;;;;1.13;0.30;;;11.10;99.90;;;;;;5019796;28;20030;-79
2022/04/08 10:07:53;;;;;;;0.47;0.20;;;11.20;99.90;;;;;;5019784;28;20018;-79
2022/04/08 10:10:29;;;;;;;0.30;0.20;;;11.20;99.90;;;;;;5018851;28;20026;-78
2022/04/08 10:13:03;;;;;;;5.85;0.50;;;11.30;99.90;;;;;;5019047;28;20029;-78
2022/04/08 10:15:39;;;;;;;0.73;0.40;;;11.30;99.90;;;;;;5018372;28;20049;-78
2022/04/08 10:18:06;;;;;;;2.10;0.40;;;11.40;99.90;;;;;;5019386;28;20026;-78
2022/04/08 10:20:37;;;;;;;0.45;0.25;;;11.50;99.90;;;;;;5016889;28;20022;-78
2022/04/08 10:23:18;;;;;;;0.15;0.15;;;11.60;99.90;;;;;;5018266;28;20018;-78
2022/04/08 10:25:50;;;;;;;0.28;0.20;;;11.60;99.90;;;;;;5016942;28;20033;-79
2022/04/08 10:28:16;;;;;;;0.22;0.10;;;11.70;99.90;;;;;;5017848;28;20030;-79
2022/04/08 10:30:45;;;;;;;0.28;0.10;;;11.80;99.90;;;;;;5017627;28;20057;-78
2022/04/08 10:33:13;;;;;;;0.10;0.10;;;11.80;99.90;;;;;;5018105;28;20096;-79
2022/04/08 10:35:52;;;;;;;0.28;0.17;;;11.90;99.90;;;;;;5017216;28;20036;-79
2022/04/08 10:38:18;;;;;;;0.38;0.20;;;11.90;99.90;;;;;;5016124;28;20437;-79
2022/04/08 10:40:56;;;;;;;0.63;0.50;;;12.00;99.90;;;;;;5018045;28;20068;-79
2022/04/08 10:43:22;;;;;;;0.38;0.10;;;12.00;99.90;;;;;;5019052;28;20037;-79
2022/04/08 10:45:58;;;;;;;0.22;0.10;;;11.90;99.90;;;;;;5018114;28;20026;-79
2022/04/08 10:48:33;;;;;;;0.15;0.15;;;11.90;99.90;;;;;;5017182;28;20022;-78
2022/04/08 10:51:14;;;;;;;0.15;0.13;;;12.00;99.90;;;;;;5018178;28;20044;-79
2022/04/08 10:53:43;;;;;;;0.52;0.22;;;12.00;99.90;;;;;;5017139;28;20026;-78
2022/04/08 10:56:13;;;;;;;0.93;0.30;;;12.10;99.90;;;;;;5016702;28;20032;-78
2022/04/08 10:58:45;;;;;;;1.02;0.22;;;12.10;99.20;;;;;;5017252;28;20057;-79
2022/04/08 11:01:27;;;;;;;1.08;0.70;;;12.30;99.10;;;;;;5016957;28;20022;-78
2022/04/08 11:04:01;;;;;;;0.60;0.30;;;12.40;98.50;;;;;;5016861;28;20026;-78
2022/04/08 11:06:29;;;;;;;1.00;0.30;;;12.40;99.10;;;;;;5016249;28;20030;-78
2022/04/08 11:08:55;;;;;;;0.95;0.20;;;12.50;97.90;;;;;;5015956;28;20033;-79
2022/04/08 11:11:28;;;;;;;0.47;0.20;;;12.60;98.80;;;;;;5017747;28;20442;-79
2022/04/08 11:13:59;;;;;;;1.00;0.45;;;12.60;99.20;;;;;;5017505;28;20026;-79
2022/04/08 11:16:30;;;;;;;2.67;0.70;;;12.70;99.30;;;;;;5021633;28;20026;-79
2022/04/08 11:18:56;;;;;;;0.40;0.22;;;12.80;99.70;;;;;;5020777;28;20033;-79
2022/04/08 11:21:23;;;;;;;0.40;0.40;;;12.80;99.40;;;;;;5022059;28;20018;-79
2022/04/08 11:24:00;;;;;;;0.22;0.20;;;12.90;99.30;;;;;;5021198;28;20076;-79
2022/04/08 11:26:28;;;;;;;0.90;0.20;;;13.00;99.70;;;;;;5017424;28;20048;-79
2022/04/08 11:28:54;;;;;;;1.20;0.32;;;13.10;99.00;;;;;;5017977;28;20018;-79
2022/04/08 11:31:20;;;;;;;1.15;0.30;;;13.20;98.50;;;;;;5020148;28;20026;-79
2022/04/08 11:33:47;;;;;;;0.88;0.30;;;13.30;97.30;;;;;;5019093;28;20106;-79
2022/04/08 11:36:20;;;;;;;0.65;0.28;;;13.20;97.90;;;;;;5020843;28;20029;-79
2022/04/08 11:38:46;;;;;;;1.33;0.30;;;13.20;97.40;;;;;;5019505;28;20022;-79
2022/04/08 11:41:19;;;;;;;0.88;0.30;;;13.20;97.10;;;;;;5018331;28;20072;-79
2022/04/08 11:43:45;;;;;;;0.57;0.30;;;13.20;97.10;;;;;;5017941;28;20080;-79
2022/04/08 11:46:15;;;;;;;0.90;0.50;;;13.20;97.40;;;;;;5018749;28;20022;-79
2022/04/08 11:48:42;;;;;;;1.47;0.47;;;13.30;97.40;;;;;;5019286;28;20022;-79
2022/04/08 11:51:08;;;;;;;0.90;0.40;;;13.40;96.30;;;;;;5018952;28;20272;-79
2022/04/08 11:53:44;;;;;;;0.55;0.20;;;13.40;97.30;;;;;;5021310;28;20025;-79
2022/04/08 11:56:10;;;;;;;1.67;0.35;;;13.40;95.50;;;;;;5020914;28;20033;-81
2022/04/08 11:58:35;;;;;;;0.50;0.30;;;13.40;96.20;;;;;;5022065;28;20037;-80
2022/04/08 12:01:03;;;;;;;1.10;0.40;;;13.50;97.70;;;;;;5026619;28;20389;-81
2022/04/08 12:03:31;;;;;;;0.47;0.28;;;13.50;96.20;;;;;;5022752;28;20030;-80
2022/04/08 12:05:59;;;;;;;0.45;0.30;;;13.50;96.90;;;;;;5017484;28;20022;-80
2022/04/08 12:08:25;;;;;;;0.32;0.28;;;13.60;96.80;;;;;;5017967;28;20426;-80
2022/04/08 12:10:54;;;;;;;1.05;0.30;;;13.70;95.10;;;;;;5016116;28;20053;-80
2022/04/08 12:13:22;;;;;;;0.55;0.22;;;13.70;95.40;;;;;;5016520;28;20061;-80
2022/04/08 12:15:50;;;;;;;1.23;0.30;;;13.70;95.60;;;;;;5017504;28;20030;-80
2022/04/08 12:18:32;;;;;;;1.10;0.40;;;13.70;95.00;;;;;;5016159;28;20033;-80
2022/04/08 12:21:00;;;;;;;0.20;0.20;;;13.70;95.50;;;;;;5017486;28;20061;-80
2022/04/08 12:23:27;;;;;;;0.40;0.30;;;13.80;95.20;;;;;;5017362;28;20026;-81
2022/04/08 12:25:56;;;;;;;1.27;0.30;;;13.90;94.50;;;;;;5016080;28;20022;-81
2022/04/08 12:28:26;;;;;;;0.70;0.38;;;14.00;94.60;;;;;;5016308;28;20022;-80
2022/04/08 12:30:52;;;;;;;1.13;0.40;;;14.10;92.10;;;;;;5016100;28;20172;-81
2022/04/08 12:33:18;;;;;;;0.55;0.40;;;14.20;93.10;;;;;;5016095;28;20030;-81
2022/04/08 12:35:47;;;;;;;0.50;0.35;;;14.20;92.20;;;;;;5017284;28;20026;-81
2022/04/08 12:38:19;;;;;;;1.15;0.50;;;14.20;92.70;;;;;;5017345;28;20030;-81
2022/04/08 12:40:46;;;;;;;0.70;0.55;;;14.20;92.50;;;;;;5017528;28;20030;-81
2022/04/08 12:43:12;;;;;;;0.40;0.30;;;14.20;92.90;;;;;;5016720;28;20026;-80
2022/04/08 12:45:38;;;;;;;0.57;0.40;;;14.20;93.30;;;;;;5017043;28;20474;-80
2022/04/08 12:48:05;;;;;;;2.72;0.32;;;14.20;91.40;;;;;;5016047;28;20060;-81
2022/04/08 12:50:32;;;;;;;1.05;0.30;;;14.10;92.00;;;;;;5017385;28;20042;-81